createdAt,value
2023-04-22T00:00:10.027Z,10.20
2023-04-22T00:04:12.094Z,10.20
2023-04-22T00:08:13.966Z,10.20
2023-04-22T00:12:15.749Z,10.20
2023-04-22T00:16:17.575Z,10.20
2023-04-22T00:20:23.174Z,10.20
2023-04-22T00:24:24.877Z,10.20
2023-04-22T00:28:27.528Z,10.20
2023-04-22T00:32:29.310Z,10.20
2023-04-22T00:36:31.668Z,10.20
2023-04-22T00:40:33.356Z,10.30
2023-04-22T00:44:36.455Z,10.30
2023-04-22T00:48:38.878Z,10.30
2023-04-22T00:52:40.760Z,10.30
2023-04-22T00:56:42.732Z,10.30
2023-04-22T01:00:44.460Z,10.30
2023-04-22T01:04:46.955Z,10.30
2023-04-22T01:08:48.810Z,10.30
2023-04-22T01:12:50.431Z,10.30
2023-04-22T01:16:53.993Z,10.40
2023-04-22T01:20:56.107Z,10.40
2023-04-22T01:24:57.803Z,10.40
2023-04-22T01:29:01.790Z,10.40
2023-04-22T01:33:03.730Z,10.40
2023-04-22T01:37:07.309Z,10.40
2023-04-22T01:41:09.134Z,10.40
2023-04-22T01:45:11.181Z,10.40
2023-04-22T01:49:13.040Z,10.40
2023-04-22T01:53:14.734Z,10.40
2023-04-22T01:57:16.497Z,10.40
2023-04-22T02:01:18.357Z,10.40
2023-04-22T02:05:20.076Z,10.30
2023-04-22T02:09:21.745Z,10.30
2023-04-22T02:13:23.500Z,10.30
2023-04-22T02:17:25.162Z,10.20
2023-04-22T02:21:29.819Z,10.30
2023-04-22T02:25:31.988Z,10.30
2023-04-22T02:29:34.729Z,10.30
2023-04-22T02:33:36.491Z,10.30
2023-04-22T02:37:38.522Z,10.40
2023-04-22T02:41:40.273Z,10.30
2023-04-22T02:45:42.013Z,10.30
2023-04-22T02:49:43.760Z,10.30
2023-04-22T02:53:45.489Z,10.30
2023-04-22T02:57:47.192Z,10.30
2023-04-22T03:01:49.160Z,10.30
2023-04-22T03:05:50.843Z,10.20
2023-04-22T03:09:52.644Z,10.30
2023-04-22T03:13:54.370Z,10.30
2023-04-22T03:17:56.111Z,10.30
2023-04-22T03:21:59.190Z,10.30
2023-04-22T03:26:01.017Z,10.30
2023-04-22T03:30:03.871Z,10.30
2023-04-22T03:34:06.192Z,10.20
2023-04-22T03:38:08.392Z,10.10
2023-04-22T03:42:11.650Z,10.10
2023-04-22T03:46:13.539Z,10.00
2023-04-22T03:50:15.473Z,10.00
2023-04-22T03:54:17.155Z,10.00
2023-04-22T03:58:19.124Z,10.10
2023-04-22T04:02:20.832Z,10.10
2023-04-22T04:06:22.580Z,10.20
2023-04-22T04:10:24.432Z,10.30
2023-04-22T04:14:26.611Z,10.30
2023-04-22T04:18:29.836Z,10.30
2023-04-22T04:22:31.891Z,10.30
2023-04-22T04:26:34.531Z,10.30
2023-04-22T04:30:36.802Z,10.30
2023-04-22T04:34:38.552Z,10.30
2023-04-22T04:38:40.299Z,10.30
2023-04-22T04:42:42.417Z,10.30
2023-04-22T04:46:44.302Z,10.30
2023-04-22T04:50:47.134Z,10.30
2023-04-22T04:54:48.800Z,10.30
2023-04-22T04:58:50.706Z,10.30
2023-04-22T05:02:52.613Z,10.40
2023-04-22T05:06:54.569Z,10.60
2023-04-22T05:10:56.380Z,10.70
2023-04-22T05:14:58.215Z,10.80
2023-04-22T05:18:59.980Z,11.00
2023-04-22T05:23:01.703Z,11.10
2023-04-22T05:27:03.613Z,11.20
2023-04-22T05:31:05.471Z,11.30
2023-04-22T05:35:07.516Z,11.40
2023-04-22T05:39:09.258Z,11.40
2023-04-22T05:43:10.936Z,11.40
2023-04-22T05:47:12.675Z,11.50
2023-04-22T05:51:14.635Z,11.50
2023-04-22T05:55:16.367Z,11.60
2023-04-22T05:59:19.616Z,11.70
2023-04-22T06:03:23.095Z,11.80
2023-04-22T06:07:24.972Z,11.90
2023-04-22T06:11:26.825Z,12.00
2023-04-22T06:15:29.080Z,12.10
2023-04-22T06:19:30.817Z,12.20
2023-04-22T06:23:32.509Z,12.20
2023-04-22T06:27:34.201Z,12.30
2023-04-22T06:31:36.057Z,12.40
2023-04-22T06:35:37.931Z,12.60
2023-04-22T06:39:39.962Z,12.70
2023-04-22T06:43:42.014Z,13.00
2023-04-22T06:47:43.761Z,13.10
2023-04-22T06:51:45.762Z,13.30
2023-04-22T06:55:47.471Z,13.60
2023-04-22T06:59:49.207Z,13.70
2023-04-22T07:03:50.957Z,13.80
2023-04-22T07:07:52.736Z,14.00
2023-04-22T07:11:54.469Z,14.10
2023-04-22T07:15:56.238Z,14.10
2023-04-22T07:19:58.134Z,14.20
2023-04-22T07:23:59.986Z,14.40
2023-04-22T07:28:01.786Z,14.60
2023-04-22T07:32:03.698Z,14.80
2023-04-22T07:36:05.834Z,15.00
2023-04-22T07:40:11.676Z,15.10
2023-04-22T07:44:16.458Z,15.20
2023-04-22T07:48:18.335Z,15.30
2023-04-22T07:52:20.983Z,15.30
2023-04-22T07:56:22.785Z,15.50
2023-04-22T08:00:24.593Z,15.70
2023-04-22T08:04:26.876Z,15.50
2023-04-22T08:08:28.844Z,15.40
2023-04-22T08:12:30.604Z,15.40
2023-04-22T08:16:32.563Z,15.50
2023-04-22T08:20:34.316Z,15.40
2023-04-22T08:24:36.089Z,15.60
2023-04-22T08:28:37.852Z,15.90
2023-04-22T08:32:39.684Z,15.90
2023-04-22T08:36:42.638Z,16.10
2023-04-22T08:40:44.379Z,16.20
2023-04-22T08:44:47.014Z,16.10
2023-04-22T08:48:49.888Z,16.20
2023-04-22T08:52:51.631Z,16.10
2023-04-22T08:56:54.147Z,16.10
2023-04-22T09:00:56.422Z,16.30
2023-04-22T09:05:01.362Z,16.60
2023-04-22T09:09:03.432Z,16.60
2023-04-22T09:13:07.786Z,16.60
2023-04-22T09:17:09.530Z,16.70
2023-04-22T09:21:11.555Z,16.60
2023-04-22T09:25:20.353Z,16.90
2023-04-22T09:29:22.118Z,16.80
2023-04-22T09:33:25.763Z,16.90
2023-04-22T09:37:36.043Z,16.90
2023-04-22T09:41:44.511Z,17.00
2023-04-22T09:45:46.281Z,17.40
2023-04-22T09:49:49.390Z,17.40
2023-04-22T09:54:08.957Z,17.70
2023-04-22T09:58:16.150Z,17.60
2023-04-22T10:02:17.895Z,17.40
2023-04-22T10:06:20.384Z,17.30
2023-04-22T10:10:22.811Z,17.30
2023-04-22T10:14:25.658Z,17.20
2023-04-22T10:18:28.092Z,17.40
2023-04-22T10:22:31.213Z,17.70
2023-04-22T10:26:41.336Z,17.90
2023-04-22T10:30:43.338Z,17.80
2023-04-22T10:34:47.567Z,17.60
2023-04-22T10:38:55.536Z,17.70
2023-04-22T10:43:03.512Z,18.00
2023-04-22T10:47:06.221Z,18.10
2023-04-22T10:51:43.173Z,17.90
2023-04-22T10:55:53.366Z,18.00
2023-04-22T10:59:58.218Z,18.30
2023-04-22T11:04:20.794Z,18.50
2023-04-22T11:08:27.903Z,18.70
2023-04-22T11:12:35.808Z,18.70
2023-04-22T11:16:38.211Z,18.80
2023-04-22T11:20:40.313Z,19.10
2023-04-22T11:24:57.300Z,19.00
2023-04-22T11:29:01.225Z,19.00
2023-04-22T11:33:03.310Z,19.00
2023-04-22T11:37:05.106Z,19.10
2023-04-22T11:41:07.123Z,19.00
2023-04-22T11:45:09.489Z,19.30
2023-04-22T11:49:15.479Z,19.40
2023-04-22T11:53:19.789Z,19.10
2023-04-22T11:57:21.988Z,19.00
2023-04-22T12:01:23.770Z,19.00
2023-04-22T12:05:45.474Z,18.70
2023-04-22T12:09:47.652Z,18.70
2023-04-22T12:13:50.675Z,18.70
2023-04-22T12:17:52.712Z,18.80
2023-04-22T12:21:57.886Z,18.70
2023-04-22T12:25:59.535Z,18.60
2023-04-22T12:30:01.580Z,18.80
2023-04-22T12:34:04.165Z,18.50
2023-04-22T12:38:05.837Z,18.30
2023-04-22T12:42:07.602Z,18.30
2023-04-22T12:46:09.929Z,18.40
2023-04-22T12:50:11.719Z,18.40
2023-04-22T12:54:13.464Z,18.10
2023-04-22T12:58:15.684Z,18.20
2023-04-22T13:02:17.439Z,18.20
2023-04-22T13:06:19.320Z,18.30
2023-04-22T13:10:22.822Z,18.10
2023-04-22T13:14:24.547Z,18.20
2023-04-22T13:18:26.240Z,18.10
2023-04-22T13:22:28.247Z,18.00
2023-04-22T13:26:30.277Z,18.00
2023-04-22T13:30:32.905Z,17.90
2023-04-22T13:34:34.713Z,17.90
2023-04-22T13:38:36.441Z,17.90
2023-04-22T13:42:38.196Z,17.80
2023-04-22T13:46:41.003Z,17.80
2023-04-22T13:50:42.885Z,17.80
2023-04-22T13:54:44.612Z,17.70
2023-04-22T13:58:46.600Z,17.80
2023-04-22T14:02:48.799Z,17.70
2023-04-22T14:06:51.227Z,17.50
2023-04-22T14:10:53.950Z,17.40
2023-04-22T14:14:55.885Z,17.50
2023-04-22T14:18:58.296Z,17.40
2023-04-22T14:23:01.500Z,17.50
2023-04-22T14:27:03.233Z,17.40
2023-04-22T14:31:05.547Z,17.70
2023-04-22T14:35:07.743Z,17.70
2023-04-22T14:39:09.517Z,17.80
2023-04-22T14:43:11.396Z,17.90
2023-04-22T14:47:13.104Z,18.00
2023-04-22T14:51:14.841Z,18.00
2023-04-22T14:55:23.153Z,18.20
2023-04-22T14:59:26.139Z,18.00
2023-04-22T15:03:28.092Z,18.00
2023-04-22T15:07:30.433Z,18.00
2023-04-22T15:11:32.121Z,17.90
2023-04-22T15:15:37.036Z,17.90
2023-04-22T15:19:41.966Z,17.60
2023-04-22T15:23:43.897Z,17.40
2023-04-22T15:27:46.007Z,17.60
2023-04-22T15:31:47.779Z,17.50
2023-04-22T15:35:50.276Z,17.40
2023-04-22T15:39:51.983Z,17.20
2023-04-22T15:43:55.157Z,17.00
2023-04-22T15:47:56.961Z,17.00
2023-04-22T15:51:58.745Z,16.90
2023-04-22T15:56:00.489Z,16.70
2023-04-22T16:00:12.057Z,16.70
2023-04-22T16:04:14.625Z,16.70
2023-04-22T16:08:16.967Z,16.80
2023-04-22T16:12:20.384Z,16.80
2023-04-22T16:16:23.036Z,16.70
2023-04-22T16:20:24.756Z,16.60
2023-04-22T16:24:26.520Z,16.60
2023-04-22T16:28:28.315Z,16.70
2023-04-22T16:32:30.058Z,16.50
2023-04-22T16:36:32.570Z,16.30
2023-04-22T16:40:35.090Z,16.20
2023-04-22T16:44:36.748Z,16.10
2023-04-22T16:48:38.482Z,16.00
2023-04-22T16:52:40.426Z,15.90
2023-04-22T16:56:42.080Z,15.80
2023-04-22T17:00:44.474Z,15.70
2023-04-22T17:04:47.475Z,15.60
2023-04-22T17:08:49.222Z,15.50
2023-04-22T17:12:52.967Z,15.50
2023-04-22T17:16:54.575Z,15.40
2023-04-22T17:20:56.285Z,15.30
2023-04-22T17:24:58.794Z,15.10
2023-04-22T17:29:00.604Z,15.20
2023-04-22T17:33:02.301Z,15.30
2023-04-22T17:37:04.066Z,15.20
2023-04-22T17:41:06.212Z,15.10
2023-04-22T17:45:09.334Z,15.20
2023-04-22T17:49:11.052Z,15.00
2023-04-22T17:53:12.689Z,15.00
2023-04-22T17:57:14.607Z,15.10
2023-04-22T18:01:16.538Z,14.90
2023-04-22T18:05:18.543Z,14.90
2023-04-22T18:09:20.200Z,14.90
2023-04-22T18:13:21.979Z,14.90
2023-04-22T18:17:23.646Z,14.90
2023-04-22T18:21:25.574Z,14.80
2023-04-22T18:25:27.786Z,14.80
2023-04-22T18:29:29.563Z,14.80
2023-04-22T18:33:31.281Z,14.70
2023-04-22T18:37:34.588Z,14.70
2023-04-22T18:41:38.620Z,14.70
2023-04-22T18:45:40.398Z,14.70
2023-04-22T18:49:42.036Z,14.60
2023-04-22T18:53:43.827Z,14.50
2023-04-22T18:57:45.512Z,14.60
2023-04-22T19:01:47.465Z,14.50
2023-04-22T19:05:49.200Z,14.40
2023-04-22T19:09:50.885Z,14.30
2023-04-22T19:13:53.665Z,14.30
2023-04-22T19:17:55.486Z,14.20
2023-04-22T19:21:57.218Z,14.20
2023-04-22T19:25:58.976Z,14.20
2023-04-22T19:30:01.210Z,14.10
2023-04-22T19:34:03.206Z,14.10
2023-04-22T19:38:05.720Z,14.10
2023-04-22T19:42:07.703Z,14.00
2023-04-22T19:46:09.419Z,14.10
2023-04-22T19:50:14.781Z,14.00
2023-04-22T19:54:18.277Z,14.00
2023-04-22T19:58:20.967Z,14.10
2023-04-22T20:02:24.544Z,14.10
2023-04-22T20:06:28.050Z,14.10
2023-04-22T20:10:31.166Z,14.00
2023-04-22T20:14:33.247Z,14.10
2023-04-22T20:18:35.270Z,13.90
2023-04-22T20:22:39.168Z,13.80
2023-04-22T20:26:41.257Z,13.70
2023-04-22T20:30:43.178Z,13.40
2023-04-22T20:34:45.133Z,13.10
2023-04-22T20:38:49.453Z,13.00
2023-04-22T20:42:51.260Z,12.70
2023-04-22T20:46:52.975Z,12.80
2023-04-22T20:50:55.667Z,12.90
2023-04-22T20:54:58.677Z,12.90
2023-04-22T20:59:00.394Z,13.00
2023-04-22T21:03:04.304Z,13.00
2023-04-22T21:07:12.140Z,13.00
2023-04-22T21:11:14.220Z,13.00
2023-04-22T21:15:16.227Z,12.90
2023-04-22T21:19:18.235Z,12.90
2023-04-22T21:23:20.670Z,13.00
2023-04-22T21:27:22.772Z,13.00
2023-04-22T21:31:25.186Z,13.10
2023-04-22T21:35:27.101Z,13.10
2023-04-22T21:39:29.827Z,13.10
2023-04-22T21:43:31.603Z,13.10
2023-04-22T21:47:33.501Z,13.10
2023-04-22T21:51:35.377Z,13.10
2023-04-22T21:55:37.156Z,13.00
2023-04-22T21:59:38.857Z,13.10
2023-04-22T22:03:41.243Z,13.20
2023-04-22T22:07:45.157Z,13.10
2023-04-22T22:11:46.997Z,12.80
2023-04-22T22:15:48.919Z,12.70
2023-04-22T22:19:50.726Z,12.50
2023-04-22T22:23:52.539Z,12.40
2023-04-22T22:27:54.316Z,12.50
2023-04-22T22:31:56.078Z,12.40
2023-04-22T22:35:57.870Z,12.50
2023-04-22T22:39:59.730Z,12.40
2023-04-22T22:44:01.511Z,12.40
2023-04-22T22:48:03.334Z,12.40
2023-04-22T22:52:05.327Z,12.30
2023-04-22T22:56:08.250Z,12.40
2023-04-22T23:00:10.965Z,12.30
2023-04-22T23:04:13.377Z,12.30
2023-04-22T23:08:15.309Z,12.30
2023-04-22T23:12:17.022Z,12.20
2023-04-22T23:16:18.835Z,12.20
2023-04-22T23:20:21.761Z,12.20
2023-04-22T23:24:24.591Z,12.00
2023-04-22T23:28:27.245Z,12.00
2023-04-22T23:32:32.270Z,11.90
2023-04-22T23:36:38.936Z,11.90
2023-04-22T23:40:40.781Z,11.90
2023-04-22T23:44:42.858Z,11.90
2023-04-22T23:48:44.787Z,11.80
2023-04-22T23:52:46.705Z,11.80
2023-04-22T23:56:48.630Z,11.80
